Time;durP1;ratioP1;P1;durP2;ratioP2;P2;SDS_P1;SDS_P2;PMS_P1;PMS_P2;Temp;Humidity;BMP_temperature;BMP_pressure;BME280_temperature;BME280_humidity;BME280_pressure;Samples;Min_cycle;Max_cycle;Signal;HPM_P1;HPM_P2
2022/09/15 00:00:24;;;;;;;11.85;3.58;;;;;;;20.48;49.92;99348.59;3144760;28;20057;-66
2022/09/15 00:01:59;;;;;;;11.48;3.25;;;;;;;20.42;50.10;99347.38;3129580;28;20135;-68
2022/09/15 00:03:31;;;;;;;10.90;3.70;;;;;;;20.46;50.04;99365.44;3137268;28;20571;-68
2022/09/15 00:05:03;;;;;;;8.50;3.15;;;;;;;20.45;50.13;99349.72;3136890;28;20088;-68
2022/09/15 00:06:36;;;;;;;14.38;4.10;;;;;;;20.46;50.14;99360.13;3136392;28;20048;-67
2022/09/15 00:08:11;;;;;;;6.15;3.30;;;;;;;20.45;50.14;99347.91;3136447;28;20062;-68
2022/09/15 00:09:43;;;;;;;9.95;3.22;;;;;;;20.45;50.20;99357.66;3136349;28;20624;-68
2022/09/15 00:11:19;;;;;;;7.45;3.13;;;;;;;20.45;50.07;99353.19;3137378;28;20529;-68
2022/09/15 00:12:50;;;;;;;7.30;3.10;;;;;;;20.42;50.24;99345.53;3135268;28;20063;-67
2022/09/15 00:14:22;;;;;;;5.57;2.95;;;;;;;20.40;50.40;99333.44;3137270;28;20076;-67
2022/09/15 00:15:54;;;;;;;11.02;3.65;;;;;;;20.44;50.35;99346.25;3136027;28;20052;-68
2022/09/15 00:17:26;;;;;;;7.78;3.25;;;;;;;20.45;50.50;99347.06;3135205;28;20118;-68
2022/09/15 00:18:59;;;;;;;12.93;4.00;;;;;;;20.43;50.56;99344.56;3135664;28;20053;-68
2022/09/15 00:20:30;;;;;;;11.45;2.95;;;;;;;20.43;50.71;99346.38;3136473;28;20470;-68
2022/09/15 00:22:02;;;;;;;10.02;3.08;;;;;;;20.42;50.77;99342.06;3136566;28;20052;-68
2022/09/15 00:23:37;;;;;;;5.53;3.10;;;;;;;20.38;50.96;99341.53;3136569;28;20143;-68
2022/09/15 00:25:10;;;;;;;5.72;2.95;;;;;;;20.35;50.83;99339.19;3136113;28;20052;-68
2022/09/15 00:26:41;;;;;;;11.77;3.13;;;;;;;20.35;50.91;99344.47;3136276;28;20220;-67
2022/09/15 00:28:14;;;;;;;6.53;3.20;;;;;;;20.32;51.19;99336.81;3136457;28;20083;-67
2022/09/15 00:29:47;;;;;;;10.93;3.25;;;;;;;20.29;50.84;99334.47;3132026;28;20044;-67
2022/09/15 00:31:21;;;;;;;5.15;3.08;;;;;;;20.29;51.25;99342.41;3136175;28;20106;-67
2022/09/15 00:32:52;;;;;;;8.68;3.22;;;;;;;20.28;51.12;99331.94;3136634;28;20313;-66
2022/09/15 00:34:25;;;;;;;9.55;3.40;;;;;;;20.25;51.18;99332.22;3135651;28;20052;-67
2022/09/15 00:35:56;;;;;;;7.22;3.00;;;;;;;20.23;51.21;99341.16;3136733;28;20058;-66
2022/09/15 00:37:28;;;;;;;8.27;3.45;;;;;;;20.22;51.36;99342.09;3136958;28;20052;-66
2022/09/15 00:39:01;;;;;;;9.73;2.85;;;;;;;20.17;51.66;99341.72;3136209;28;20052;-67
2022/09/15 00:40:33;;;;;;;5.75;3.25;;;;;;;20.11;51.84;99342.25;3135565;28;20052;-67
2022/09/15 00:42:06;;;;;;;10.20;2.90;;;;;;;20.11;51.70;99331.69;3135489;28;20059;-67
2022/09/15 00:43:50;;;;;;;12.85;3.13;;;;;;;20.11;51.70;99339.63;3134816;28;20521;-67
2022/09/15 00:45:21;;;;;;;10.05;3.20;;;;;;;20.06;51.96;99333.09;3131411;28;20052;-67
2022/09/15 00:46:56;;;;;;;9.85;3.53;;;;;;;20.00;52.10;99330.03;3135961;28;20107;-67
2022/09/15 00:48:27;;;;;;;5.38;3.13;;;;;;;19.98;52.35;99336.44;3135331;28;20864;-67
2022/09/15 00:50:02;;;;;;;6.38;3.30;;;;;;;19.95;52.61;99328.81;3135266;28;20090;-66
2022/09/15 00:51:39;;;;;;;6.63;3.13;;;;;;;19.93;52.63;99334.22;3135791;28;20426;-67
2022/09/15 00:53:14;;;;;;;6.65;3.00;;;;;;;19.88;52.63;99328.53;3133689;28;20129;-67
2022/09/15 00:54:52;;;;;;;10.52;2.97;;;;;;;19.88;52.53;99330.34;3134829;28;20094;-67
2022/09/15 00:56:26;;;;;;;5.68;3.15;;;;;;;19.88;52.45;99319.78;3134302;28;20139;-67
2022/09/15 00:58:02;;;;;;;8.88;2.95;;;;;;;19.90;52.24;99337.13;3134390;28;20052;-67
2022/09/15 00:59:36;;;;;;;7.72;2.92;;;;;;;19.91;52.52;99327.41;3134684;28;20509;-67
2022/09/15 01:01:08;;;;;;;7.13;2.88;;;;;;;19.90;52.47;99331.03;3134625;28;20105;-67
2022/09/15 01:02:42;;;;;;;14.23;3.08;;;;;;;19.89;52.31;99329.38;3135010;28;20048;-66
2022/09/15 01:04:15;;;;;;;7.80;2.88;;;;;;;19.87;52.73;99320.72;3135432;28;20557;-67
2022/09/15 01:05:53;;;;;;;9.77;3.63;;;;;;;19.83;52.48;99314.06;3135866;28;20048;-67
2022/09/15 01:07:30;;;;;;;8.10;2.75;;;;;;;19.84;52.46;99316.56;3130038;28;20060;-67
2022/09/15 01:09:06;;;;;;;8.73;2.92;;;;;;;19.83;52.46;99322.00;3134472;28;20048;-67
2022/09/15 01:10:40;;;;;;;8.32;2.90;;;;;;;19.76;52.57;99319.91;3134671;28;20231;-67
2022/09/15 01:12:13;;;;;;;6.15;2.88;;;;;;;19.80;52.49;99317.00;3135706;28;20053;-67
2022/09/15 01:13:45;;;;;;;5.22;2.33;;;;;;;19.66;52.81;99310.31;3134534;28;20044;-67
2022/09/15 01:15:18;;;;;;;7.07;3.17;;;;;;;19.69;52.97;99315.31;3133341;28;20051;-67
2022/09/15 01:16:56;;;;;;;5.15;2.67;;;;;;;19.63;52.77;99305.28;3134963;28;20441;-67
2022/09/15 01:18:37;;;;;;;7.55;2.80;;;;;;;19.70;52.69;99309.91;3134572;28;20060;-67
2022/09/15 01:20:34;;;;;;;10.68;2.70;;;;;;;19.70;52.47;99309.91;3134278;28;20205;-67
2022/09/15 01:22:17;;;;;;;5.82;3.17;;;;;;;19.72;52.60;99307.13;3134152;28;20062;-67
2022/09/15 01:24:21;;;;;;;5.32;2.72;;;;;;;19.73;52.52;99303.53;3128572;28;20135;-67
2022/09/15 01:26:32;;;;;;;5.47;2.78;;;;;;;19.75;52.36;99306.84;3128614;28;20110;-68
2022/09/15 01:28:46;;;;;;;4.63;2.92;;;;;;;19.65;52.48;99287.53;3135178;28;20531;-68
2022/09/15 01:30:20;;;;;;;7.68;3.13;;;;;;;19.75;52.46;99296.25;3129114;28;20594;-68
2022/09/15 01:33:52;;;;;;;7.13;2.83;;;;;;;19.77;52.27;99300.44;3111412;28;20130;-68
2022/09/15 01:35:32;;;;;;;6.63;2.55;;;;;;;19.78;52.51;99301.25;3135243;28;20048;-68
2022/09/15 01:37:10;;;;;;;6.78;3.35;;;;;;;19.76;52.46;99304.06;3135380;28;20044;-68
2022/09/15 01:38:50;;;;;;;5.60;2.83;;;;;;;19.79;52.45;99308.25;3135470;28;20098;-68
2022/09/15 01:40:24;;;;;;;8.25;2.58;;;;;;;19.80;52.36;99304.59;3134751;28;20648;-68
2022/09/15 01:42:01;;;;;;;8.82;3.00;;;;;;;19.81;52.30;99300.16;3135079;28;20203;-68
2022/09/15 01:43:35;;;;;;;10.07;2.97;;;;;;;19.82;52.45;99300.03;3134770;28;20895;-68
2022/09/15 01:45:11;;;;;;;4.93;2.55;;;;;;;19.83;52.55;99309.63;3135768;28;20071;-68
2022/09/15 01:46:48;;;;;;;4.65;3.05;;;;;;;19.82;52.63;99307.09;3134825;28;20113;-68
2022/09/15 01:48:22;;;;;;;11.98;3.00;;;;;;;19.81;52.56;99311.56;3129990;28;20564;-68
2022/09/15 01:49:59;;;;;;;11.35;3.15;;;;;;;19.80;52.56;99304.59;3134789;28;20106;-68
2022/09/15 01:51:33;;;;;;;10.35;3.33;;;;;;;19.79;52.69;99308.25;3134945;28;20143;-68
2022/09/15 01:53:10;;;;;;;5.07;3.00;;;;;;;19.78;52.67;99317.94;3135802;28;20079;-68
2022/09/15 01:54:47;;;;;;;6.15;3.03;;;;;;;19.76;52.83;99314.63;3135126;28;20048;-68
2022/09/15 01:56:20;;;;;;;10.07;3.13;;;;;;;19.73;52.74;99314.09;3134838;28;20441;-68
2022/09/15 01:57:51;;;;;;;10.00;3.10;;;;;;;19.69;53.17;99321.44;3135665;28;20135;-68
2022/09/15 01:59:23;;;;;;;9.60;2.88;;;;;;;19.67;53.34;99328.69;3135594;28;20163;-68
2022/09/15 02:01:00;;;;;;;9.40;3.47;;;;;;;19.64;53.18;99315.72;3134818;28;20521;-68
2022/09/15 02:02:37;;;;;;;10.82;3.08;;;;;;;19.64;53.41;99321.00;3135064;28;20105;-68
2022/09/15 02:04:45;;;;;;;7.43;3.67;;;;;;;19.59;53.18;99311.81;3136391;28;20086;-69
2022/09/15 02:06:26;;;;;;;7.22;3.55;;;;;;;19.62;53.33;99311.53;3118295;28;20069;-68
2022/09/15 02:08:04;;;;;;;10.93;3.95;;;;;;;19.61;53.20;99316.00;3118350;28;20068;-68
2022/09/15 02:09:38;;;;;;;12.05;4.32;;;;;;;19.52;53.27;99300.94;3118261;28;20549;-68
2022/09/15 02:11:15;;;;;;;11.30;3.72;;;;;;;19.58;53.34;99311.00;3119228;28;20478;-68
2022/09/15 02:12:50;;;;;;;4.53;2.95;;;;;;;19.56;53.53;99307.66;3144169;28;20075;-68
2022/09/15 02:14:35;;;;;;;14.23;3.88;;;;;;;19.57;53.44;99316.41;3144889;28;20110;-68
2022/09/15 02:16:14;;;;;;;25.73;4.32;;;;;;;19.53;53.39;99318.50;3144391;28;20044;-67
2022/09/15 02:17:53;;;;;;;12.40;4.35;;;;;;;19.52;53.44;99322.09;3140857;28;20052;-68
2022/09/15 02:19:31;;;;;;;12.45;3.47;;;;;;;19.40;53.40;99312.63;3140548;28;20045;-67
2022/09/15 02:21:08;;;;;;;9.52;3.95;;;;;;;19.44;53.52;99327.25;3144769;28;20580;-67
2022/09/15 02:22:45;;;;;;;13.18;4.13;;;;;;;19.38;53.65;99320.69;3144800;28;20139;-68
2022/09/15 02:24:22;;;;;;;18.95;4.43;;;;;;;19.40;53.62;99323.19;3144521;28;20144;-68
2022/09/15 02:26:03;;;;;;;10.00;3.75;;;;;;;19.39;53.89;99324.16;3144127;28;20531;-68
2022/09/15 02:27:38;;;;;;;13.25;4.40;;;;;;;19.38;53.78;99325.97;3143190;28;20433;-68
2022/09/15 02:29:13;;;;;;;7.05;3.42;;;;;;;19.39;53.92;99327.63;3144841;28;20049;-68
2022/09/15 02:30:48;;;;;;;17.73;4.53;;;;;;;19.38;53.89;99323.34;3144455;28;20044;-68
2022/09/15 02:32:23;;;;;;;11.35;3.90;;;;;;;19.39;54.10;99332.09;3144302;28;20135;-68
2022/09/15 02:33:59;;;;;;;9.18;3.92;;;;;;;19.40;54.13;99328.47;3143487;28;20052;-68
2022/09/15 02:35:34;;;;;;;17.02;4.07;;;;;;;19.39;54.07;99326.81;3144418;28;20148;-68
2022/09/15 02:37:08;;;;;;;8.93;3.75;;;;;;;19.35;54.26;99326.25;3144174;28;20084;-68
2022/09/15 02:38:49;;;;;;;19.33;3.72;;;;;;;19.36;54.44;99319.16;3144327;28;20061;-68
2022/09/15 02:40:21;;;;;;;12.63;4.18;;;;;;;19.35;54.35;99320.16;3144588;28;20044;-68
2022/09/15 02:41:52;;;;;;;17.30;3.50;;;;;;;19.34;54.26;99324.56;3143666;28;20055;-68
2022/09/15 02:43:24;;;;;;;12.15;3.50;;;;;;;19.30;54.21;99316.09;3144105;28;20049;-68
2022/09/15 02:44:57;;;;;;;22.48;3.50;;;;;;;19.34;54.33;99324.56;3144421;28;20048;-68
2022/09/15 02:46:29;;;;;;;10.70;3.45;;;;;;;19.32;54.41;99322.06;3147484;28;20109;-68
2022/09/15 02:48:00;;;;;;;14.27;3.70;;;;;;;19.31;54.47;99317.78;3144600;28;20063;-68
2022/09/15 02:49:34;;;;;;;12.05;3.05;;;;;;;19.28;54.59;99325.94;3144310;28;20070;-68
2022/09/15 02:51:06;;;;;;;7.10;2.88;;;;;;;19.25;54.58;99317.47;3144206;28;20053;-69
2022/09/15 02:52:38;;;;;;;7.95;3.50;;;;;;;19.25;54.54;99320.09;3144341;28;20056;-68
2022/09/15 02:54:10;;;;;;;10.40;3.10;;;;;;;19.26;54.52;99317.34;3144379;28;20044;-68
2022/09/15 02:55:42;;;;;;;9.85;3.78;;;;;;;19.26;54.54;99325.28;3144044;28;20068;-68
2022/09/15 02:57:14;;;;;;;6.60;3.90;;;;;;;19.25;54.60;99320.94;3144051;28;20457;-69
2022/09/15 02:58:45;;;;;;;8.63;3.72;;;;;;;19.29;54.53;99318.88;3144126;28;20106;-68
2022/09/15 03:00:18;;;;;;;10.60;3.10;;;;;;;19.28;54.58;99318.03;3144230;28;20143;-68
2022/09/15 03:01:50;;;;;;;8.02;2.97;;;;;;;19.28;54.80;99310.09;3143979;28;20440;-68
2022/09/15 03:03:21;;;;;;;10.23;3.00;;;;;;;19.30;54.66;99316.09;3144448;28;20044;-68
2022/09/15 03:04:55;;;;;;;9.00;3.22;;;;;;;19.30;54.92;99313.44;3144180;28;20052;-69
2022/09/15 03:06:33;;;;;;;10.88;3.20;;;;;;;19.32;54.75;99314.16;3144656;28;20044;-68
2022/09/15 03:08:04;;;;;;;8.55;3.08;;;;;;;19.33;54.67;99313.19;3140850;28;20085;-69
2022/09/15 03:09:36;;;;;;;10.50;2.85;;;;;;;19.34;54.67;99311.38;3146899;28;20049;-68
2022/09/15 03:11:10;;;;;;;7.30;2.58;;;;;;;19.33;54.90;99307.91;3146865;28;20133;-68
2022/09/15 03:12:45;;;;;;;15.27;3.03;;;;;;;19.30;54.80;99310.81;3146432;28;20127;-68
2022/09/15 03:14:16;;;;;;;9.93;2.85;;;;;;;19.33;54.85;99322.91;3146875;28;20048;-68
2022/09/15 03:15:48;;;;;;;10.38;2.90;;;;;;;19.31;54.87;99316.91;3146412;28;20048;-68
2022/09/15 03:17:19;;;;;;;6.47;2.53;;;;;;;19.29;54.87;99316.25;3146658;28;20048;-68
2022/09/15 03:18:51;;;;;;;8.68;3.08;;;;;;;19.28;54.91;99319.84;3146558;28;20505;-69
2022/09/15 03:20:27;;;;;;;6.63;2.88;;;;;;;19.29;54.96;99319.72;3146537;28;20105;-68
2022/09/15 03:21:58;;;;;;;9.07;3.38;;;;;;;19.26;54.97;99314.72;3146821;28;20063;-68
2022/09/15 03:23:30;;;;;;;13.13;3.35;;;;;;;19.28;55.02;99320.66;3147027;28;20052;-68
2022/09/15 03:25:04;;;;;;;12.23;3.42;;;;;;;19.28;54.96;99320.66;3146504;28;20141;-68
2022/09/15 03:26:36;;;;;;;10.50;3.60;;;;;;;19.28;54.84;99323.31;3146328;28;20040;-68
2022/09/15 03:28:08;;;;;;;13.77;4.25;;;;;;;19.28;55.17;99319.84;3144218;28;20048;-68
2022/09/15 03:29:39;;;;;;;19.80;4.00;;;;;;;19.27;55.18;99316.38;3145600;28;20482;-68
2022/09/15 03:31:10;;;;;;;12.95;4.60;;;;;;;19.26;55.21;99314.72;3145594;28;20052;-68
2022/09/15 03:32:42;;;;;;;11.20;4.10;;;;;;;19.22;55.30;99305.38;3145429;28;20151;-68
2022/09/15 03:34:13;;;;;;;9.80;3.75;;;;;;;19.24;55.31;99319.28;3145538;28;20205;-68
2022/09/15 03:35:47;;;;;;;13.57;3.83;;;;;;;19.21;55.34;99309.00;3145882;28;20494;-68
2022/09/15 03:37:19;;;;;;;10.18;4.13;;;;;;;19.20;55.31;99317.91;3145299;28;20048;-68
2022/09/15 03:38:51;;;;;;;9.02;3.83;;;;;;;19.17;55.22;99318.16;3146216;28;20056;-68
2022/09/15 03:40:22;;;;;;;20.92;4.82;;;;;;;19.13;55.18;99319.38;3141898;28;20154;-68
2022/09/15 03:41:54;;;;;;;10.63;4.63;;;;;;;19.09;55.31;99318.00;3145748;28;20567;-68
2022/09/15 03:43:27;;;;;;;11.57;4.18;;;;;;;19.01;55.16;99318.66;3145856;28;20060;-68
2022/09/15 03:44:58;;;;;;;11.48;4.38;;;;;;;19.00;55.16;99321.47;3145041;28;20131;-68
2022/09/15 03:46:30;;;;;;;16.83;4.60;;;;;;;18.97;55.09;99309.38;3144498;28;20053;-66
2022/09/15 03:48:01;;;;;;;8.43;4.20;;;;;;;18.96;55.07;99309.47;3145381;28;20098;-63
2022/09/15 03:49:33;;;;;;;12.02;4.00;;;;;;;18.95;55.15;99315.75;3145379;28;20131;-68
2022/09/15 03:51:08;;;;;;;10.32;4.25;;;;;;;18.87;55.21;99311.13;3139622;28;20121;-62
2022/09/15 03:52:39;;;;;;;10.75;3.78;;;;;;;18.91;55.23;99317.81;3145824;28;20563;-66
2022/09/15 03:54:11;;;;;;;10.70;4.05;;;;;;;18.89;54.94;99313.63;3136130;28;20095;-67
2022/09/15 03:55:42;;;;;;;11.60;3.75;;;;;;;18.86;55.25;99320.84;3144411;28;20446;-64
2022/09/15 03:57:14;;;;;;;13.75;4.45;;;;;;;18.85;55.46;99321.81;3146517;28;20640;-64
2022/09/15 03:58:46;;;;;;;14.82;4.30;;;;;;;18.84;55.42;99322.81;3143585;28;20052;-64
2022/09/15 04:00:17;;;;;;;8.13;3.83;;;;;;;18.81;55.43;99320.44;3146393;28;20071;-66
2022/09/15 04:01:49;;;;;;;8.43;3.78;;;;;;;18.78;55.55;99306.66;3146280;28;20532;-66
2022/09/15 04:03:20;;;;;;;10.43;4.20;;;;;;;18.79;55.76;99319.72;3140629;28;20091;-66
2022/09/15 04:04:52;;;;;;;11.95;4.82;;;;;;;18.77;55.88;99307.63;3145793;28;20052;-67
2022/09/15 04:06:26;;;;;;;12.93;3.90;;;;;;;18.78;55.94;99311.94;3146338;28;20525;-64
2022/09/15 04:07:57;;;;;;;13.43;4.40;;;;;;;18.78;55.93;99318.06;3146138;28;20117;-63
2022/09/15 04:09:29;;;;;;;15.07;4.68;;;;;;;18.75;56.12;99312.19;3145981;28;20056;-64
2022/09/15 04:11:05;;;;;;;12.27;4.50;;;;;;;18.74;56.59;99315.81;3146039;28;20056;-62
2022/09/15 04:12:37;;;;;;;18.60;5.30;;;;;;;18.70;56.84;99312.56;3145989;28;20127;-63
2022/09/15 04:14:09;;;;;;;24.85;5.55;;;;;;;18.67;56.89;99310.22;3146337;28;20049;-66
2022/09/15 04:15:43;;;;;;;40.90;19.98;;;;;;;18.71;56.98;99323.97;3138897;28;20396;-64
2022/09/15 04:17:15;;;;;;;16.48;8.05;;;;;;;18.73;56.85;99320.25;3130532;28;20090;-61
2022/09/15 04:18:47;;;;;;;29.17;11.75;;;;;;;18.76;56.82;99325.25;3136812;28;20714;-63
2022/09/15 04:20:19;;;;;;;15.32;5.20;;;;;;;18.77;56.89;99332.19;3136547;28;20163;-62
2022/09/15 04:21:52;;;;;;;15.13;5.53;;;;;;;18.79;56.95;99326.81;3134795;28;20596;-63
2022/09/15 04:23:23;;;;;;;25.45;4.95;;;;;;;18.77;56.98;99329.56;3135875;28;20066;-63
2022/09/15 04:24:55;;;;;;;19.52;6.38;;;;;;;18.77;57.30;99323.47;3136871;28;20826;-63
2022/09/15 04:26:30;;;;;;;32.47;5.43;;;;;;;18.78;57.34;99328.63;3138056;28;20052;-66
2022/09/15 04:28:02;;;;;;;24.95;6.38;;;;;;;18.78;57.32;99327.75;3135397;28;20056;-64
2022/09/15 04:29:34;;;;;;;18.85;5.30;;;;;;;18.78;57.32;99327.75;3135876;28;20052;-66
2022/09/15 04:31:09;;;;;;;22.38;6.60;;;;;;;18.82;57.14;99330.00;3135053;28;20163;-63
2022/09/15 04:32:41;;;;;;;16.25;5.90;;;;;;;18.81;57.32;99333.63;3136266;28;20159;-63
2022/09/15 04:34:13;;;;;;;23.45;6.53;;;;;;;18.83;57.27;99339.59;3137096;28;20059;-65
2022/09/15 04:35:44;;;;;;;18.00;6.28;;;;;;;18.82;57.41;99340.56;3136659;28;20052;-65
2022/09/15 04:37:18;;;;;;;26.60;6.55;;;;;;;18.81;57.63;99349.44;3136238;28;20558;-65
2022/09/15 04:38:50;;;;;;;23.75;6.32;;;;;;;18.83;57.50;99355.41;3135929;28;20059;-65
2022/09/15 04:40:22;;;;;;;30.52;7.10;;;;;;;18.86;57.43;99362.22;3136714;28;20053;-65
2022/09/15 04:41:55;;;;;;;23.02;7.43;;;;;;;18.87;57.39;99363.88;3136567;28;20519;-65
2022/09/15 04:43:27;;;;;;;27.73;7.50;;;;;;;18.86;57.55;99363.06;3136115;28;20106;-65
2022/09/15 04:44:59;;;;;;;34.58;7.43;;;;;;;18.89;57.55;99359.31;3136119;28;20097;-64
2022/09/15 04:46:31;;;;;;;22.10;7.85;;;;;;;18.91;57.61;99364.47;3136220;28;20060;-64
2022/09/15 04:48:03;;;;;;;23.95;6.22;;;;;;;18.91;57.49;99367.94;3136212;28;20086;-64
2022/09/15 04:49:34;;;;;;;26.02;7.15;;;;;;;18.94;57.57;99372.13;3136102;28;20053;-64
2022/09/15 04:51:10;;;;;;;33.97;6.45;;;;;;;18.95;57.69;99368.50;3135887;28;20545;-64
2022/09/15 04:52:44;;;;;;;33.63;7.13;;;;;;;18.95;57.63;99371.16;3136060;28;20574;-65
2022/09/15 04:54:16;;;;;;;23.58;8.35;;;;;;;18.96;57.53;99372.81;3135826;28;20768;-64
2022/09/15 04:55:47;;;;;;;34.65;8.15;;;;;;;18.95;57.45;99371.97;3135949;28;20056;-65
2022/09/15 04:57:18;;;;;;;37.03;9.10;;;;;;;18.96;57.68;99363.13;3129504;28;20171;-65
2022/09/15 04:58:51;;;;;;;30.52;7.28;;;;;;;18.99;57.46;99372.53;3136181;28;20457;-65
2022/09/15 05:00:25;;;;;;;32.33;7.85;;;;;;;18.99;57.52;99383.09;3134334;28;20135;-66
2022/09/15 05:01:56;;;;;;;;;;;;;;;18.98;57.50;99376.16;3136295;28;20057;-65
2022/09/15 05:03:29;;;;;;;28.52;7.88;;;;;;;18.98;57.63;99382.25;3136135;28;19924;-65
2022/09/15 05:05:01;;;;;;;25.92;7.18;;;;;;;19.01;57.65;99375.88;3135876;28;20126;-65
2022/09/15 05:06:33;;;;;;;31.50;7.22;;;;;;;19.02;57.54;99372.31;3135727;28;20052;-66
2022/09/15 05:08:07;;;;;;;29.70;7.57;;;;;;;19.03;57.53;99363.41;3135752;28;20101;-65
2022/09/15 05:09:39;;;;;;;21.05;7.07;;;;;;;19.03;57.46;99366.88;3135441;28;20509;-65
2022/09/15 05:11:12;;;;;;;22.98;7.95;;;;;;;19.07;57.42;99372.72;3136269;28;20115;-65
2022/09/15 05:12:45;;;;;;;;;;;;;;;19.05;57.37;99364.94;3136134;28;20074;-65
2022/09/15 05:14:17;;;;;;;27.10;5.95;;;;;;;19.07;57.03;99370.91;3136109;28;19985;-65
2022/09/15 05:15:48;;;;;;;27.55;5.70;;;;;;;19.03;56.94;99368.69;3135681;28;20049;-65
2022/09/15 05:17:23;;;;;;;21.10;6.03;;;;;;;19.01;56.77;99370.63;3135557;28;20057;-65
2022/09/15 05:18:58;;;;;;;19.45;5.47;;;;;;;19.00;56.51;99366.31;3135373;28;20094;-64
2022/09/15 05:20:30;;;;;;;13.85;5.53;;;;;;;19.01;56.57;99375.88;3134826;28;20113;-65
2022/09/15 05:22:03;;;;;;;15.90;5.65;;;;;;;18.98;56.33;99371.72;3134609;28;20052;-68
2022/09/15 05:23:37;;;;;;;49.00;20.08;;;;;;;18.98;56.38;99373.53;3135627;28;20052;-70
2022/09/15 05:25:10;;;;;;;474.90;299.45;;;;;;;18.99;56.21;99383.09;3133914;28;20127;-70
2022/09/15 05:26:42;;;;;;;27.65;11.50;;;;;;;19.01;55.83;99375.88;3134495;28;20183;-69
2022/09/15 05:28:14;;;;;;;27.48;7.22;;;;;;;18.97;56.22;99362.13;3134686;28;20052;-70
2022/09/15 05:29:46;;;;;;;26.08;7.28;;;;;;;19.04;56.28;99365.91;3133863;28;20056;-68
2022/09/15 05:31:19;;;;;;;27.63;10.32;;;;;;;19.09;56.19;99366.34;3135026;28;20178;-66
2022/09/15 05:32:51;;;;;;;35.45;6.15;;;;;;;19.13;56.07;99374.00;3135065;28;20064;-66
2022/09/15 05:34:23;;;;;;;19.85;5.78;;;;;;;19.14;56.27;99365.94;3135827;28;20141;-62
2022/09/15 05:35:57;;;;;;;22.65;6.30;;;;;;;19.17;56.24;99360.41;3135882;28;20105;-62
2022/09/15 05:37:29;;;;;;;19.55;6.15;;;;;;;19.21;55.91;99363.59;3135169;28;20150;-63
2022/09/15 05:39:02;;;;;;;29.60;6.22;;;;;;;19.25;55.99;99357.91;3134969;28;20482;-63
2022/09/15 05:40:33;;;;;;;26.50;6.05;;;;;;;19.33;56.00;99349.31;3135162;28;20048;-64
2022/09/15 05:42:06;;;;;;;26.55;6.22;;;;;;;19.44;56.01;99356.28;3135589;28;20048;-68
2022/09/15 05:43:39;;;;;;;22.35;6.70;;;;;;;19.54;55.85;99354.47;3132598;28;20068;-65
2022/09/15 05:45:11;;;;;;;28.35;6.32;;;;;;;19.67;55.48;99357.75;3136216;28;20056;-65
2022/09/15 05:46:43;;;;;;;27.02;5.55;;;;;;;19.80;55.41;99344.25;3135868;28;20052;-66
2022/09/15 05:48:15;;;;;;;28.90;6.20;;;;;;;19.95;55.22;99352.59;3134625;28;20135;-67
2022/09/15 05:49:47;;;;;;;29.55;6.10;;;;;;;20.04;54.99;99354.38;3135685;28;20439;-67
2022/09/15 05:51:20;;;;;;;25.17;5.85;;;;;;;20.13;54.45;99347.41;3134415;28;20048;-68
2022/09/15 05:52:52;;;;;;;21.17;5.50;;;;;;;20.23;54.45;99348.22;3134293;28;20062;-68
2022/09/15 05:54:27;;;;;;;24.73;5.90;;;;;;;20.36;54.26;99345.28;3133970;28;20540;-66
2022/09/15 05:56:01;;;;;;;16.23;5.30;;;;;;;20.48;53.64;99341.50;3134512;28;20318;-65
2022/09/15 05:57:34;;;;;;;19.50;5.57;;;;;;;20.61;53.53;99338.56;3134198;28;20285;-64
2022/09/15 05:59:06;;;;;;;33.00;6.05;;;;;;;20.72;53.45;99341.03;3134209;28;20309;-63
2022/09/15 06:00:37;;;;;;;21.45;6.05;;;;;;;20.82;53.17;99344.47;3135365;28;20621;-63
2022/09/15 06:02:10;;;;;;;21.70;5.65;;;;;;;20.92;52.71;99339.13;3135162;28;20623;-63
2022/09/15 06:03:42;;;;;;;32.03;6.77;;;;;;;20.98;52.58;99343.00;3135084;28;20102;-62
2022/09/15 06:05:14;;;;;;;22.52;6.47;;;;;;;21.07;52.09;99348.25;3127511;28;20412;-62
2022/09/15 06:06:46;;;;;;;27.45;5.07;;;;;;;21.15;52.20;99355.47;3134318;28;20531;-63
2022/09/15 06:08:17;;;;;;;20.55;6.07;;;;;;;21.23;52.02;99349.41;3134591;28;20323;-63
2022/09/15 06:09:50;;;;;;;18.38;5.38;;;;;;;21.30;51.94;99348.69;3135602;28;20051;-62
2022/09/15 06:11:24;;;;;;;17.67;5.50;;;;;;;21.38;51.47;99342.66;3134985;28;20063;-63
2022/09/15 06:12:56;;;;;;;27.20;5.70;;;;;;;21.45;51.63;99348.22;3133534;28;20491;-63
2022/09/15 06:14:28;;;;;;;16.23;5.05;;;;;;;21.49;51.33;99342.44;3133732;28;20424;-63
2022/09/15 06:16:01;;;;;;;17.45;5.55;;;;;;;21.53;51.14;99338.53;3136733;28;20045;-63
2022/09/15 06:17:33;;;;;;;20.45;5.07;;;;;;;21.61;51.00;99344.88;3143691;28;20509;-63
2022/09/15 06:19:05;;;;;;;26.30;5.43;;;;;;;21.66;50.86;99342.63;3143990;28;20087;-63
2022/09/15 06:20:36;;;;;;;14.75;4.95;;;;;;;21.73;50.65;99338.34;3143753;28;20076;-62
2022/09/15 06:22:08;;;;;;;25.73;5.50;;;;;;;21.79;50.96;99337.75;3143862;28;20056;-63
2022/09/15 06:23:40;;;;;;;23.65;5.25;;;;;;;21.88;50.42;99336.00;3143313;28;20052;-61
2022/09/15 06:25:13;;;;;;;21.73;5.38;;;;;;;21.95;50.42;99332.59;3143473;28;20082;-65
2022/09/15 06:26:45;;;;;;;21.60;5.55;;;;;;;22.05;50.34;99329.84;3143262;28;20040;-64
2022/09/15 06:28:16;;;;;;;17.13;5.50;;;;;;;22.16;50.27;99334.09;3143357;28;20052;-64
2022/09/15 06:29:49;;;;;;;20.65;5.43;;;;;;;22.24;49.52;99326.19;3142651;28;20048;-65
2022/09/15 06:31:22;;;;;;;21.50;5.35;;;;;;;22.32;49.50;99328.91;3144017;28;20456;-64
2022/09/15 06:32:54;;;;;;;18.15;5.40;;;;;;;22.38;49.26;99320.31;3144327;28;20785;-70
2022/09/15 06:34:25;;;;;;;33.05;11.88;;;;;;;22.47;49.22;99322.03;3144664;28;20048;-69
2022/09/15 06:36:00;;;;;;;16.40;4.93;;;;;;;22.57;49.12;99329.03;3144738;28;20048;-70
2022/09/15 06:37:32;;;;;;;14.93;4.88;;;;;;;22.62;48.54;99329.41;3144847;28;20094;-70
2022/09/15 06:39:04;;;;;;;12.95;4.90;;;;;;;;;;3146402;28;20432;-64
2022/09/15 06:40:36;;;;;;;17.88;4.38;;;;;;;22.71;48.12;99329.28;3144511;28;20052;-63
2022/09/15 06:42:09;;;;;;;13.45;4.78;;;;;;;22.84;48.35;99336.00;3143598;28;20197;-64
2022/09/15 06:43:41;;;;;;;18.42;4.43;;;;;;;22.93;47.72;99337.69;3144605;28;20454;-66
2022/09/15 06:45:13;;;;;;;14.82;4.05;;;;;;;23.00;47.37;99333.44;3144971;28;20660;-67
2022/09/15 06:46:46;;;;;;;18.15;4.93;;;;;;;23.02;47.57;99335.94;3143773;28;20059;-65
2022/09/15 06:48:17;;;;;;;24.70;5.00;;;;;;;23.13;47.27;99332.97;3144652;28;20056;-63
2022/09/15 06:49:49;;;;;;;16.52;4.43;;;;;;;23.26;47.54;99332.53;3144216;28;20109;-64
2022/09/15 06:51:23;;;;;;;34.58;6.95;;;;;;;23.36;47.18;99323.41;3144405;28;20071;-63
2022/09/15 06:52:55;;;;;;;36.10;6.45;;;;;;;23.47;46.66;99324.09;3143303;28;20054;-63
2022/09/15 06:54:27;;;;;;;23.70;6.05;;;;;;;23.60;46.68;99325.28;3144470;28;20140;-64
2022/09/15 06:56:03;;;;;;;22.15;5.88;;;;;;;23.75;46.65;99301.56;3139878;28;20087;-64
2022/09/15 06:57:35;;;;;;;42.03;6.78;;;;;;;23.97;46.73;99301.88;3142817;28;20056;-64
2022/09/15 06:59:08;;;;;;;24.08;6.90;;;;;;;24.20;46.49;99310.00;3131050;28;20156;-64
2022/09/15 07:00:40;;;;;;;34.15;5.47;;;;;;;24.42;45.98;99308.44;3135899;28;20575;-63
2022/09/15 07:02:12;;;;;;;32.75;6.22;;;;;;;24.61;45.21;99297.47;3144294;28;20130;-63
2022/09/15 07:03:44;;;;;;;21.60;5.22;;;;;;;24.88;45.15;99303.34;3144144;28;20094;-63
2022/09/15 07:05:16;;;;;;;35.78;5.75;;;;;;;25.10;44.58;99309.72;3144350;28;20052;-63
2022/09/15 07:06:49;;;;;;;24.45;6.70;;;;;;;25.29;44.27;99314.66;3143733;28;20426;-63
2022/09/15 07:08:21;;;;;;;31.48;6.57;;;;;;;25.48;43.93;99320.53;3144522;28;20186;-63
2022/09/15 07:09:54;;;;;;;38.88;6.32;;;;;;;25.66;42.92;99307.72;3143041;28;20071;-64
2022/09/15 07:11:28;;;;;;;23.40;6.47;;;;;;;25.82;43.08;99306.78;3144098;28;20102;-63
2022/09/15 07:13:00;;;;;;;29.58;5.40;;;;;;;26.04;42.44;99305.94;3143640;28;20441;-64
2022/09/15 07:14:31;;;;;;;25.65;6.25;;;;;;;26.22;41.69;99302.09;3144557;28;20056;-63
2022/09/15 07:16:06;;;;;;;20.60;5.90;;;;;;;26.36;41.63;99298.63;3143853;28;20063;-62
2022/09/15 07:17:38;;;;;;;30.65;6.20;;;;;;;26.51;41.09;99299.47;3144513;28;20048;-65
2022/09/15 07:19:10;;;;;;;28.08;6.13;;;;;;;26.74;40.93;99311.91;3144158;28;20081;-62
2022/09/15 07:20:41;;;;;;;29.15;5.95;;;;;;;26.94;40.19;99310.28;3143376;28;20057;-63